Time;durP1;ratioP1;P1;durP2;ratioP2;P2;SDS_P1;SDS_P2;PMS_P1;PMS_P2;Temp;Humidity;BMP_temperature;BMP_pressure;BME280_temperature;BME280_humidity;BME280_pressure;Samples;Min_cycle;Max_cycle;Signal;HPM_P1;HPM_P2
2023/05/12 00:01:58;;;;;;;1.25;0.60;;;16.50;60.10;;;;;;5957011;29;20346;-75
2023/05/12 00:05:13;;;;;;;0.55;0.55;;;16.50;60.30;;;;;;5959265;29;20042;-75
2023/05/12 00:08:16;;;;;;;;;;;16.50;60.30;;;;;;5959374;29;20046;-74
2023/05/12 00:11:23;;;;;;;0.60;0.50;;;16.40;60.40;;;;;;5970807;29;19924;-75
2023/05/12 00:14:30;;;;;;;8.30;0.77;;;16.40;60.40;;;;;;5973709;29;20043;-74
2023/05/12 00:17:37;;;;;;;1.25;0.73;;;16.40;60.60;;;;;;5972078;29;20031;-73
2023/05/12 00:20:48;;;;;;;0.63;0.60;;;16.40;60.70;;;;;;5956839;29;20146;-73
2023/05/12 00:23:58;;;;;;;2.33;0.80;;;16.40;61.00;;;;;;5971937;29;20106;-75
2023/05/12 00:27:13;;;;;;;1.02;0.50;;;16.40;61.10;;;;;;5975698;29;20187;-73
2023/05/12 00:30:21;;;;;;;1.77;0.65;;;16.40;61.10;;;;;;5979365;29;20046;-75
2023/05/12 00:33:26;;;;;;;0.95;0.70;;;16.40;61.10;;;;;;5982248;29;20113;-74
2023/05/12 00:36:36;;;;;;;3.38;0.80;;;16.50;61.20;;;;;;5981550;29;20118;-74
2023/05/12 00:39:45;;;;;;;1.20;0.80;;;16.40;61.10;;;;;;5983728;29;20030;-74
2023/05/12 00:42:57;;;;;;;1.08;0.85;;;16.40;61.10;;;;;;5985245;29;20047;-72
2023/05/12 00:46:13;;;;;;;1.50;0.70;;;16.40;61.10;;;;;;5983139;29;20039;-73
2023/05/12 00:49:19;;;;;;;0.80;0.75;;;16.50;61.20;;;;;;5998939;29;20104;-75
2023/05/12 00:52:30;;;;;;;4.60;1.17;;;16.50;61.30;;;;;;5994898;29;20132;-74
2023/05/12 00:55:36;;;;;;;1.73;0.77;;;16.50;61.30;;;;;;6007678;29;20178;-72
2023/05/12 00:58:49;;;;;;;3.30;0.85;;;16.50;61.40;;;;;;6007366;29;20113;-76
2023/05/12 01:02:03;;;;;;;3.63;0.73;;;16.50;61.30;;;;;;6007586;29;20052;-73
2023/05/12 01:05:19;;;;;;;1.20;0.90;;;16.60;62.10;;;;;;6006331;29;20030;-75
2023/05/12 01:08:30;;;;;;;11.02;0.65;;;16.60;61.20;;;;;;5989354;29;20023;-74
2023/05/12 01:11:38;;;;;;;1.08;0.77;;;16.60;61.00;;;;;;5972113;29;20091;-73
2023/05/12 01:14:50;;;;;;;1.23;0.68;;;16.70;60.90;;;;;;5960754;29;20095;-74
2023/05/12 01:18:04;;;;;;;2.15;0.80;;;16.70;60.80;;;;;;5960535;29;20103;-74
2023/05/12 01:21:14;;;;;;;1.02;0.70;;;16.70;60.80;;;;;;5976510;29;20134;-74
2023/05/12 01:24:23;;;;;;;1.02;0.73;;;16.80;60.80;;;;;;5984328;29;20050;-74
2023/05/12 01:27:35;;;;;;;1.33;0.80;;;16.80;60.80;;;;;;5997845;29;20095;-72
2023/05/12 01:30:44;;;;;;;1.33;0.80;;;16.80;60.90;;;;;;5997709;29;20557;-74
2023/05/12 01:33:57;;;;;;;0.85;0.75;;;16.80;60.90;;;;;;5984087;29;20061;-75
2023/05/12 01:37:08;;;;;;;0.70;0.70;;;16.80;61.00;;;;;;5997773;29;20073;-74
2023/05/12 01:40:16;;;;;;;1.05;0.80;;;16.70;61.00;;;;;;5982653;29;20094;-74
2023/05/12 01:43:24;;;;;;;3.17;0.82;;;16.70;61.10;;;;;;5982683;29;20125;-74
2023/05/12 01:46:30;;;;;;;1.88;0.80;;;16.70;61.10;;;;;;5984005;29;20037;-73
2023/05/12 01:49:41;;;;;;;1.08;0.75;;;16.70;61.00;;;;;;5997473;29;20042;-75
2023/05/12 01:52:53;;;;;;;0.68;0.68;;;16.70;61.00;;;;;;5996716;29;20034;-73
2023/05/12 01:56:02;;;;;;;0.60;0.60;;;16.70;61.20;;;;;;5989198;29;20473;-73
2023/05/12 01:59:16;;;;;;;1.85;0.80;;;16.70;61.30;;;;;;5997504;29;20102;-74
2023/05/12 02:02:23;;;;;;;0.50;0.50;;;16.70;61.40;;;;;;5982795;29;20073;-75
2023/05/12 02:05:30;;;;;;;0.80;0.60;;;16.70;61.60;;;;;;5983575;29;20101;-75
2023/05/12 02:08:41;;;;;;;0.50;0.50;;;16.60;61.50;;;;;;5982204;29;20038;-74
2023/05/12 02:11:48;;;;;;;4.40;1.02;;;16.60;61.50;;;;;;5983048;29;20125;-73
2023/05/12 02:14:59;;;;;;;2.88;1.00;;;16.60;61.50;;;;;;5996471;29;20160;-75
2023/05/12 02:18:12;;;;;;;2.35;1.17;;;16.60;61.60;;;;;;5982568;29;20072;-75
2023/05/12 02:21:20;;;;;;;1.67;0.82;;;16.50;61.60;;;;;;5981680;29;20034;-73
2023/05/12 02:24:31;;;;;;;2.60;0.95;;;16.60;61.80;;;;;;5983101;29;20034;-74
2023/05/12 02:27:43;;;;;;;0.93;0.63;;;16.50;61.80;;;;;;5982950;29;20039;-74
2023/05/12 02:30:54;;;;;;;0.93;0.82;;;16.50;61.90;;;;;;5980990;29;20057;-75
2023/05/12 02:34:05;;;;;;;1.05;0.82;;;16.50;62.00;;;;;;5980875;29;20041;-72
2023/05/12 02:37:18;;;;;;;3.28;1.10;;;16.40;62.20;;;;;;5995688;29;20116;-73
2023/05/12 02:40:26;;;;;;;4.13;1.25;;;16.40;62.30;;;;;;5980700;29;20026;-74
2023/05/12 02:43:32;;;;;;;1.45;1.10;;;16.30;62.40;;;;;;5982367;29;20034;-72
2023/05/12 02:46:45;;;;;;;2.27;1.43;;;16.30;62.40;;;;;;5981955;29;20034;-72
2023/05/12 02:49:57;;;;;;;1.15;0.95;;;16.30;62.50;;;;;;5980596;29;20045;-73
2023/05/12 02:53:38;;;;;;;1.67;1.15;;;16.30;62.50;;;;;;5981262;29;20434;-74
2023/05/12 02:56:55;;;;;;;2.45;1.38;;;16.30;62.50;;;;;;5959254;29;20050;-74
2023/05/12 03:00:07;;;;;;;5.15;0.90;;;16.30;62.10;;;;;;5980135;29;20107;-75
2023/05/12 03:03:19;;;;;;;6.78;1.52;;;16.30;62.00;;;;;;6000979;29;20509;-73
2023/05/12 03:06:27;;;;;;;152.43;44.80;;;16.30;61.70;;;;;;5981704;29;20078;-74
2023/05/12 03:09:35;;;;;;;34.90;10.48;;;16.30;61.80;;;;;;5981966;29;20156;-74
2023/05/12 03:12:48;;;;;;;4.47;2.47;;;16.30;61.80;;;;;;5980259;29;20061;-72
2023/05/12 03:16:05;;;;;;;2.78;1.48;;;16.40;61.90;;;;;;5995138;29;20262;-75
2023/05/12 03:19:17;;;;;;;5.50;1.38;;;16.40;61.70;;;;;;5995027;29;20041;-74
2023/05/12 03:22:27;;;;;;;2.35;1.33;;;16.40;61.40;;;;;;5981520;29;20057;-74
2023/05/12 03:25:36;;;;;;;1.63;1.00;;;16.40;61.30;;;;;;5980190;29;20045;-73
2023/05/12 03:28:50;;;;;;;1.55;0.80;;;16.40;61.00;;;;;;5979850;29;20192;-73
2023/05/12 03:32:09;;;;;;;3.72;1.30;;;16.40;60.80;;;;;;5981901;29;20060;-73
2023/05/12 03:35:19;;;;;;;2.05;1.00;;;16.50;60.60;;;;;;5981813;29;20114;-75
2023/05/12 03:38:24;;;;;;;1.17;1.00;;;16.50;60.40;;;;;;5981357;29;20030;-73
2023/05/12 03:41:34;;;;;;;2.50;0.80;;;16.40;60.10;;;;;;5996727;29;20030;-74
2023/05/12 03:44:42;;;;;;;1.52;1.10;;;16.40;60.00;;;;;;5983184;29;20050;-72
2023/05/12 03:47:55;;;;;;;1.77;1.30;;;16.40;60.00;;;;;;5982960;29;20042;-72
2023/05/12 03:51:10;;;;;;;1.15;0.90;;;16.40;60.00;;;;;;5996703;29;20035;-74
2023/05/12 03:54:20;;;;;;;1.27;0.95;;;16.40;60.00;;;;;;6001315;29;20130;-74
2023/05/12 03:57:27;;;;;;;1.05;0.88;;;16.30;59.90;;;;;;5982844;29;20041;-73
2023/05/12 04:00:36;;;;;;;4.15;1.20;;;16.30;59.90;;;;;;5982737;29;20095;-75
2023/05/12 04:03:44;;;;;;;2.25;1.00;;;16.30;59.90;;;;;;5996793;29;20050;-72
2023/05/12 04:06:53;;;;;;;1.08;0.90;;;16.30;60.10;;;;;;5983429;29;20469;-73
2023/05/12 04:10:07;;;;;;;1.40;1.02;;;16.30;60.40;;;;;;5983499;29;20045;-73
2023/05/12 04:13:19;;;;;;;1.98;0.90;;;16.20;60.70;;;;;;5986141;29;20105;-73
2023/05/12 04:16:27;;;;;;;2.97;1.27;;;16.20;60.80;;;;;;5985384;29;20035;-74
2023/05/12 04:19:37;;;;;;;1.80;1.13;;;16.20;61.00;;;;;;5986419;29;20053;-74
2023/05/12 04:22:46;;;;;;;6.00;1.20;;;16.20;60.70;;;;;;5986421;29;20034;-74
2023/05/12 04:25:55;;;;;;;1.98;0.88;;;16.20;60.60;;;;;;5985411;29;20038;-72
2023/05/12 04:29:08;;;;;;;8.15;1.05;;;16.10;60.40;;;;;;5998306;29;20137;-74
2023/05/12 04:32:23;;;;;;;1.63;1.05;;;16.10;60.30;;;;;;5984986;29;20075;-76
2023/05/12 04:35:30;;;;;;;5.13;1.00;;;16.10;60.50;;;;;;5983342;29;20090;-74
2023/05/12 04:38:39;;;;;;;2.78;1.00;;;16.10;60.90;;;;;;5984710;29;20038;-74
2023/05/12 04:41:49;;;;;;;1.45;1.05;;;16.10;61.40;;;;;;5984736;29;20038;-75
2023/05/12 04:45:07;;;;;;;2.25;1.08;;;16.10;61.60;;;;;;5982281;29;20098;-73
2023/05/12 04:48:19;;;;;;;6.82;1.50;;;16.10;61.80;;;;;;5983440;29;20079;-74
2023/05/12 04:51:28;;;;;;;3.63;1.45;;;16.10;61.90;;;;;;5983450;29;20115;-73
2023/05/12 04:54:35;;;;;;;2.47;1.20;;;16.10;61.90;;;;;;5984916;29;20038;-74
2023/05/12 04:57:50;;;;;;;3.22;1.17;;;16.20;61.90;;;;;;5983646;29;20043;-75
2023/05/12 05:00:53;;;;;;;2.83;1.30;;;16.20;61.80;;;;;;5983119;29;20062;-74
2023/05/12 05:04:00;;;;;;;1.40;1.08;;;16.20;61.80;;;;;;5983107;29;20034;-75
2023/05/12 05:07:11;;;;;;;2.55;1.23;;;16.30;61.80;;;;;;5998007;29;20062;-76
2023/05/12 05:10:17;;;;;;;2.35;1.15;;;16.30;61.60;;;;;;5984603;29;20035;-74
2023/05/12 05:13:26;;;;;;;2.90;1.02;;;16.40;61.50;;;;;;5984400;29;20117;-73
2023/05/12 05:16:34;;;;;;;1.67;1.13;;;16.40;61.30;;;;;;5982644;29;20073;-75
2023/05/12 05:19:39;;;;;;;2.10;1.00;;;16.40;61.20;;;;;;5982731;29;20038;-75
2023/05/12 05:22:48;;;;;;;1.08;0.93;;;16.50;61.20;;;;;;5982294;29;20030;-75
2023/05/12 05:25:52;;;;;;;7.78;1.35;;;16.50;61.10;;;;;;5997151;29;20026;-74
2023/05/12 05:28:57;;;;;;;1.33;1.08;;;16.60;61.00;;;;;;5982572;29;20130;-75
2023/05/12 05:32:03;;;;;;;9.10;1.10;;;16.60;60.90;;;;;;5997339;29;20042;-75
2023/05/12 05:35:09;;;;;;;4.13;1.50;;;16.70;60.70;;;;;;5983282;29;20042;-74
2023/05/12 05:38:18;;;;;;;4.80;1.08;;;16.70;60.50;;;;;;5984631;29;20062;-76
2023/05/12 05:41:29;;;;;;;2.97;1.10;;;16.80;60.40;;;;;;5998749;29;20039;-76
2023/05/12 05:44:36;;;;;;;3.05;0.88;;;16.80;60.20;;;;;;5985478;29;20057;-72
2023/05/12 05:47:41;;;;;;;4.35;1.27;;;16.80;60.10;;;;;;5996989;29;20053;-75
2023/05/12 05:50:46;;;;;;;1.95;1.40;;;16.90;60.00;;;;;;5997320;29;20042;-75
2023/05/12 05:53:54;;;;;;;2.97;1.45;;;16.90;59.90;;;;;;5981457;29;20093;-76
2023/05/12 05:57:06;;;;;;;3.55;1.50;;;17.00;59.80;;;;;;5982439;29;20642;-75
2023/05/12 06:00:15;;;;;;;1.33;1.13;;;17.00;59.70;;;;;;5966616;29;20042;-74
2023/05/12 06:03:25;;;;;;;2.08;1.25;;;17.10;59.50;;;;;;5966630;29;20042;-74
2023/05/12 06:06:30;;;;;;;2.35;1.15;;;17.20;59.30;;;;;;5982229;29;20087;-75
2023/05/12 06:09:38;;;;;;;1.38;1.17;;;17.30;59.00;;;;;;5996784;29;20053;-76
2023/05/12 06:12:43;;;;;;;2.80;1.30;;;17.30;58.70;;;;;;5981473;29;20050;-75
2023/05/12 06:15:52;;;;;;;3.70;1.40;;;17.40;58.60;;;;;;5960497;29;20027;-74
2023/05/12 06:18:59;;;;;;;3.13;1.23;;;17.40;58.50;;;;;;5959015;29;20070;-75
2023/05/12 06:22:09;;;;;;;3.00;1.63;;;17.50;58.30;;;;;;5958868;29;20053;-76
2023/05/12 06:25:19;;;;;;;4.93;1.70;;;17.50;58.30;;;;;;5973745;29;20124;-75
2023/05/12 06:28:22;;;;;;;2.40;1.50;;;17.60;58.20;;;;;;5958838;29;20079;-75
2023/05/12 06:31:29;;;;;;;1.75;1.10;;;17.70;58.20;;;;;;5958626;29;20046;-74
2023/05/12 06:34:36;;;;;;;2.60;1.33;;;17.70;58.00;;;;;;5971221;29;20034;-75
2023/05/12 06:37:49;;;;;;;8.63;1.50;;;17.80;58.00;;;;;;5943277;29;20746;-76
2023/05/12 06:40:54;;;;;;;2.95;1.90;;;17.80;57.90;;;;;;5959461;29;20038;-75
2023/05/12 06:44:01;;;;;;;3.60;1.58;;;17.90;57.90;;;;;;5962718;29;20660;-75
2023/05/12 06:47:12;;;;;;;6.90;1.73;;;17.90;57.90;;;;;;5995332;29;20034;-75
2023/05/12 06:50:17;;;;;;;3.85;1.50;;;18.00;57.90;;;;;;5982225;29;20042;-76
2023/05/12 06:53:28;;;;;;;3.42;1.77;;;18.00;57.70;;;;;;5980579;29;20038;-76
2023/05/12 06:56:39;;;;;;;3.33;1.67;;;18.10;57.70;;;;;;5973344;29;20039;-75
2023/05/12 06:59:49;;;;;;;2.73;1.70;;;18.10;57.50;;;;;;5968415;29;20034;-75
2023/05/12 07:02:55;;;;;;;6.38;2.42;;;18.20;57.40;;;;;;5982241;29;20274;-76
2023/05/12 07:06:04;;;;;;;8.98;2.50;;;18.20;57.20;;;;;;5982179;29;20050;-75
2023/05/12 07:09:17;;;;;;;4.55;2.45;;;18.30;57.10;;;;;;5995686;29;20093;-76
2023/05/12 07:12:26;;;;;;;10.60;3.55;;;18.20;56.90;;;;;;5981077;29;20042;-76
2023/05/12 07:15:31;;;;;;;5.97;2.83;;;18.20;56.80;;;;;;5995890;29;20042;-75
2023/05/12 07:18:41;;;;;;;5.22;2.25;;;18.20;56.80;;;;;;5981917;29;20176;-77
2023/05/12 07:21:50;;;;;;;5.03;2.47;;;18.20;56.80;;;;;;5981681;29;20042;-76
2023/05/12 07:24:57;;;;;;;5.95;2.95;;;18.30;56.90;;;;;;5982392;29;20031;-76
2023/05/12 07:28:10;;;;;;;4.35;2.70;;;18.30;56.80;;;;;;5965917;29;20053;-77
2023/05/12 07:31:21;;;;;;;4.10;2.67;;;18.40;56.80;;;;;;5996745;29;20411;-78
2023/05/12 07:34:29;;;;;;;3.60;2.33;;;18.40;56.80;;;;;;5982587;29;20534;-76
2023/05/12 07:37:35;;;;;;;3.15;1.73;;;18.40;56.70;;;;;;5982165;29;20061;-75
2023/05/12 07:40:45;;;;;;;2.83;1.40;;;18.60;56.50;;;;;;5980485;29;20042;-75
2023/05/12 07:43:56;;;;;;;2.10;1.20;;;18.70;56.10;;;;;;5980895;29;20103;-75
2023/05/12 07:47:09;;;;;;;2.25;0.82;;;18.80;55.60;;;;;;5984524;29;20121;-76
2023/05/12 07:50:26;;;;;;;1.90;1.20;;;18.80;55.20;;;;;;5988999;29;20099;-76
2023/05/12 07:53:31;;;;;;;2.85;1.00;;;18.90;55.00;;;;;;6009556;29;20049;-76
2023/05/12 07:56:43;;;;;;;2.58;1.15;;;18.90;54.60;;;;;;5988983;29;20041;-76
2023/05/12 07:59:52;;;;;;;6.53;3.35;;;19.00;54.50;;;;;;6003602;29;20042;-76
2023/05/12 08:03:02;;;;;;;2.50;1.47;;;19.10;54.20;;;;;;6003417;29;20044;-76
2023/05/12 08:06:13;;;;;;;1.13;1.00;;;19.20;53.90;;;;;;6002897;29;20282;-76
2023/05/12 08:09:17;;;;;;;;;;;19.40;53.50;;;;;;6003385;29;20034;-75
2023/05/12 08:12:27;;;;;;;7.53;1.33;;;19.50;53.10;;;;;;5988269;29;19912;-75
2023/05/12 08:15:33;;;;;;;1.77;1.00;;;19.50;52.90;;;;;;5973716;29;20045;-74
2023/05/12 08:18:41;;;;;;;3.58;1.40;;;19.40;52.70;;;;;;5988505;29;20039;-75
2023/05/12 08:21:55;;;;;;;3.45;1.27;;;19.40;52.80;;;;;;6001852;29;20102;-75
2023/05/12 08:25:00;;;;;;;3.72;1.10;;;19.30;52.70;;;;;;5988680;29;20034;-76
2023/05/12 08:28:13;;;;;;;1.42;1.05;;;19.40;52.70;;;;;;6001442;29;20046;-76
2023/05/12 08:31:22;;;;;;;6.00;1.65;;;19.30;52.40;;;;;;5972071;29;20049;-75
2023/05/12 08:34:31;;;;;;;3.80;1.10;;;19.20;52.40;;;;;;6002235;29;20044;-75
2023/05/12 08:37:36;;;;;;;1.55;1.20;;;19.20;52.60;;;;;;5987078;29;20046;-76
2023/05/12 08:41:05;;;;;;;1.00;0.93;;;19.20;52.80;;;;;;5996581;29;20070;-76
2023/05/12 08:44:18;;;;;;;1.48;1.20;;;19.30;53.10;;;;;;5968231;29;20066;-75
2023/05/12 08:47:27;;;;;;;2.28;1.30;;;19.30;53.20;;;;;;5967241;29;20027;-77
2023/05/12 08:50:35;;;;;;;2.00;1.10;;;19.50;53.30;;;;;;5965883;29;20066;-76
2023/05/12 08:53:41;;;;;;;4.45;1.33;;;19.50;53.30;;;;;;5999545;29;20476;-76
2023/05/12 08:56:51;;;;;;;4.75;0.98;;;19.60;53.10;;;;;;5979882;29;20152;-76
2023/05/12 09:00:07;;;;;;;2.20;1.02;;;19.80;52.80;;;;;;5961019;29;20034;-77
2023/05/12 09:03:15;;;;;;;3.25;1.20;;;19.90;52.60;;;;;;5962768;29;20065;-76
2023/05/12 09:06:21;;;;;;;3.55;1.42;;;20.00;52.40;;;;;;5962199;29;20031;-76
2023/05/12 09:09:31;;;;;;;8.13;1.48;;;20.10;52.20;;;;;;5960854;29;20038;-77
2023/05/12 09:12:39;;;;;;;3.65;1.65;;;20.10;52.00;;;;;;5962068;29;20095;-76
2023/05/12 09:15:57;;;;;;;3.40;1.50;;;20.20;51.80;;;;;;5961070;29;20058;-76
2023/05/12 09:19:06;;;;;;;1.98;1.13;;;20.20;51.70;;;;;;5960797;29;20070;-75
2023/05/12 09:22:15;;;;;;;1.65;1.20;;;20.30;51.60;;;;;;5960988;29;20118;-76
2023/05/12 09:25:24;;;;;;;8.35;1.50;;;20.40;51.40;;;;;;5960862;29;20039;-78
2023/05/12 09:28:41;;;;;;;1.23;1.08;;;20.50;51.20;;;;;;5961979;29;20030;-77
2023/05/12 09:32:00;;;;;;;10.00;1.30;;;20.50;51.00;;;;;;5945660;29;20042;-76
2023/05/12 09:35:12;;;;;;;1.30;1.20;;;20.70;50.60;;;;;;5982138;29;20066;-77
2023/05/12 09:38:19;;;;;;;1.42;1.05;;;20.50;50.30;;;;;;5983191;29;20065;-75
2023/05/12 09:41:25;;;;;;;2.92;1.25;;;20.50;50.00;;;;;;5982998;29;20130;-75
2023/05/12 09:44:33;;;;;;;4.53;1.50;;;20.40;49.90;;;;;;5998458;29;20110;-78
2023/05/12 09:47:40;;;;;;;4.18;1.20;;;20.30;49.80;;;;;;5984073;29;20038;-76
2023/05/12 09:50:49;;;;;;;1.70;1.20;;;20.20;49.90;;;;;;5984882;29;20034;-77
2023/05/12 09:53:58;;;;;;;3.55;1.45;;;20.10;49.90;;;;;;5999342;29;20034;-76
2023/05/12 09:57:10;;;;;;;3.33;1.40;;;20.00;50.10;;;;;;6002273;29;20062;-74
2023/05/12 10:00:17;;;;;;;3.05;1.20;;;19.90;50.30;;;;;;5984096;29;20045;-76
2023/05/12 10:03:25;;;;;;;2.47;1.40;;;19.70;50.40;;;;;;5983801;29;20094;-76
2023/05/12 10:06:37;;;;;;;3.75;1.67;;;19.70;50.70;;;;;;5983113;29;20403;-76
2023/05/12 10:09:48;;;;;;;5.53;1.60;;;19.60;50.90;;;;;;5984002;29;20046;-74
2023/05/12 10:12:54;;;;;;;3.53;1.75;;;19.60;51.00;;;;;;5997598;29;20041;-76
2023/05/12 10:16:08;;;;;;;6.75;1.40;;;19.60;51.10;;;;;;5996847;29;20037;-76
2023/05/12 10:19:16;;;;;;;8.57;1.58;;;19.60;51.10;;;;;;5983292;29;20030;-77
2023/05/12 10:22:24;;;;;;;5.28;1.20;;;19.60;51.20;;;;;;5997078;29;20090;-76
2023/05/12 10:25:35;;;;;;;3.30;1.63;;;19.60;51.40;;;;;;5984285;29;20026;-76
2023/05/12 10:28:41;;;;;;;3.00;1.58;;;19.40;51.40;;;;;;5982834;29;20034;-77
2023/05/12 10:31:49;;;;;;;2.58;1.60;;;19.60;51.50;;;;;;5967501;29;20159;-76
2023/05/12 10:35:08;;;;;;;5.75;1.50;;;19.50;51.40;;;;;;5978439;29;20038;-75
2023/05/12 10:38:18;;;;;;;2.50;1.42;;;19.40;51.50;;;;;;5982139;29;20039;-76
2023/05/12 10:41:36;;;;;;;4.15;1.60;;;19.40;51.30;;;;;;5967140;29;20042;-75
2023/05/12 10:44:54;;;;;;;5.93;2.10;;;19.40;51.30;;;;;;5983833;29;20506;-75
2023/05/12 10:48:16;;;;;;;2.08;1.25;;;19.50;51.20;;;;;;5981535;29;20038;-74
2023/05/12 10:51:23;;;;;;;8.07;1.77;;;19.50;51.10;;;;;;5983102;29;20038;-75
2023/05/12 10:54:29;;;;;;;3.97;1.77;;;19.70;51.10;;;;;;5981433;29;20035;-76
2023/05/12 10:57:46;;;;;;;2.97;1.38;;;19.70;50.90;;;;;;5996635;29;20065;-75
2023/05/12 11:00:54;;;;;;;5.40;1.80;;;19.80;51.00;;;;;;5995577;29;20053;-74
2023/05/12 11:04:18;;;;;;;2.13;1.30;;;19.90;50.80;;;;;;5983165;29;20061;-74
2023/05/12 11:07:30;;;;;;;7.82;2.08;;;20.10;50.50;;;;;;5981514;29;20117;-74
2023/05/12 11:10:43;;;;;;;5.85;2.30;;;20.10;50.20;;;;;;5996012;29;20403;-74
2023/05/12 11:13:51;;;;;;;4.55;1.38;;;20.10;50.10;;;;;;5981076;29;20493;-75
2023/05/12 11:16:59;;;;;;;3.70;1.65;;;20.00;50.20;;;;;;5981541;29;20056;-74
2023/05/12 11:20:03;;;;;;;2.28;1.20;;;19.90;50.30;;;;;;5982051;29;20116;-74
2023/05/12 11:23:09;;;;;;;3.20;1.50;;;19.90;50.30;;;;;;5982069;29;20042;-74
2023/05/12 11:26:20;;;;;;;;;;;19.90;50.40;;;;;;5981670;29;20404;-76
2023/05/12 11:29:27;;;;;;;2.85;1.75;;;19.90;50.50;;;;;;5965977;29;19920;-76
2023/05/12 11:32:34;;;;;;;4.53;1.25;;;19.90;51.00;;;;;;5982678;29;20038;-75
2023/05/12 11:35:43;;;;;;;1.35;1.10;;;20.00;50.20;;;;;;5997143;29;20046;-73
2023/05/12 11:38:55;;;;;;;3.33;1.38;;;20.20;50.10;;;;;;5982946;29;20133;-75
2023/05/12 11:42:13;;;;;;;4.90;1.40;;;20.20;49.80;;;;;;5981557;29;20197;-75
2023/05/12 11:45:37;;;;;;;7.00;1.70;;;20.20;49.70;;;;;;5966014;29;20046;-74
2023/05/12 11:48:44;;;;;;;1.88;1.17;;;20.30;49.50;;;;;;5980443;29;20075;-77
2023/05/12 11:51:56;;;;;;;7.97;1.55;;;20.50;49.10;;;;;;5982177;29;20058;-73
2023/05/12 11:55:05;;;;;;;4.22;1.48;;;20.70;48.70;;;;;;5995328;29;20098;-74
2023/05/12 11:58:21;;;;;;;5.40;1.30;;;20.90;48.30;;;;;;5965678;29;20042;-74
2023/05/12 12:01:28;;;;;;;1.27;0.98;;;21.00;47.90;;;;;;5981169;29;20103;-74
2023/05/12 12:04:36;;;;;;;1.10;1.00;;;21.00;47.60;;;;;;5982231;29;20035;-75
2023/05/12 12:07:43;;;;;;;2.55;1.17;;;21.00;47.40;;;;;;5995807;29;20420;-74
2023/05/12 12:10:50;;;;;;;2.90;1.73;;;21.30;47.30;;;;;;5982165;29;20118;-74
2023/05/12 12:13:58;;;;;;;3.13;1.20;;;21.40;47.00;;;;;;5981974;29;20046;-74
2023/05/12 12:17:06;;;;;;;3.00;1.10;;;21.50;46.90;;;;;;5980745;29;20137;-74
2023/05/12 12:20:17;;;;;;;2.20;1.35;;;21.50;46.70;;;;;;5995040;29;20121;-73
2023/05/12 12:23:24;;;;;;;3.00;1.00;;;21.60;46.50;;;;;;5990546;29;20508;-76
2023/05/12 12:26:28;;;;;;;5.63;1.33;;;21.60;46.40;;;;;;5980498;29;20126;-75
2023/05/12 12:29:36;;;;;;;3.45;1.83;;;21.60;46.40;;;;;;5995013;29;20043;-77
2023/05/12 12:32:43;;;;;;;9.35;1.20;;;21.60;46.30;;;;;;5981442;29;20045;-76
2023/05/12 12:35:58;;;;;;;2.05;1.10;;;21.60;46.30;;;;;;5985941;29;20524;-75
2023/05/12 12:39:07;;;;;;;2.28;1.23;;;21.70;46.00;;;;;;5947582;29;20034;-75
2023/05/12 12:42:21;;;;;;;5.57;1.20;;;21.70;45.90;;;;;;5961979;29;20039;-73
2023/05/12 12:45:27;;;;;;;5.60;1.13;;;21.60;45.80;;;;;;5963654;29;20084;-75
2023/05/12 12:48:34;;;;;;;4.15;1.20;;;21.70;46.00;;;;;;5978455;29;20281;-74
2023/05/12 12:51:39;;;;;;;2.40;1.20;;;22.00;45.80;;;;;;5987135;29;20037;-74
2023/05/12 12:54:48;;;;;;;2.58;1.10;;;22.30;45.10;;;;;;6000596;29;20034;-75
2023/05/12 12:57:58;;;;;;;3.70;1.20;;;22.40;44.70;;;;;;5998901;29;20090;-73
2023/05/12 13:01:09;;;;;;;4.80;1.27;;;22.50;44.50;;;;;;5985702;29;20050;-73
2023/05/12 13:04:21;;;;;;;3.47;1.30;;;22.60;44.30;;;;;;5984058;29;20089;-77
2023/05/12 13:07:26;;;;;;;;;;;22.50;44.20;;;;;;5985694;29;20105;-73
2023/05/12 13:10:31;;;;;;;2.75;1.08;;;22.50;44.10;;;;;;5985867;29;19916;-73
2023/05/12 13:13:36;;;;;;;1.80;1.50;;;22.60;44.10;;;;;;5984533;29;20086;-75
2023/05/12 13:16:43;;;;;;;4.72;1.33;;;22.70;43.80;;;;;;5984215;29;20045;-73
2023/05/12 13:19:52;;;;;;;1.77;0.93;;;22.90;43.50;;;;;;5984034;29;20042;-74
2023/05/12 13:23:02;;;;;;;2.60;1.00;;;23.10;43.90;;;;;;5999612;29;20383;-77
2023/05/12 13:26:17;;;;;;;2.28;1.35;;;23.30;42.90;;;;;;5984957;29;20821;-75
2023/05/12 13:29:22;;;;;;;1.98;1.30;;;23.40;42.80;;;;;;5983795;29;20099;-74
2023/05/12 13:32:29;;;;;;;2.30;1.23;;;23.50;42.50;;;;;;5985310;29;20046;-75
2023/05/12 13:35:35;;;;;;;3.38;1.20;;;23.60;42.30;;;;;;5984852;29;20040;-76
2023/05/12 13:38:41;;;;;;;6.72;1.27;;;23.60;42.00;;;;;;5983063;29;20079;-76
2023/05/12 13:41:50;;;;;;;1.08;0.90;;;23.40;42.00;;;;;;5983814;29;20042;-74
2023/05/12 13:45:07;;;;;;;1.98;1.02;;;23.30;42.30;;;;;;5984704;29;20034;-75
2023/05/12 13:48:21;;;;;;;2.80;1.40;;;23.20;42.50;;;;;;5985494;29;20113;-74
2023/05/12 13:51:28;;;;;;;;;;;23.10;42.80;;;;;;5987357;29;20034;-73
2023/05/12 13:54:36;;;;;;;2.50;1.38;;;22.90;43.00;;;;;;6001172;29;19923;-75
2023/05/12 13:57:42;;;;;;;1.70;1.17;;;22.80;43.40;;;;;;5998355;29;20062;-74
2023/05/12 14:00:54;;;;;;;2.33;1.13;;;22.70;43.70;;;;;;5984318;29;20174;-73
2023/05/12 14:04:06;;;;;;;4.78;1.15;;;22.60;43.80;;;;;;5984619;29;20031;-74
2023/05/12 14:07:14;;;;;;;3.10;1.07;;;22.50;44.00;;;;;;5983790;29;20069;-74
2023/05/12 14:10:20;;;;;;;2.25;1.30;;;22.60;43.90;;;;;;5983793;29;20091;-74
2023/05/12 14:13:28;;;;;;;1.42;1.10;;;22.60;43.80;;;;;;5985347;29;20048;-76
2023/05/12 14:16:36;;;;;;;1.77;1.23;;;22.60;43.70;;;;;;5984625;29;20110;-74
2023/05/12 14:19:41;;;;;;;4.07;1.10;;;22.50;43.70;;;;;;5973518;29;20070;-75
2023/05/12 14:22:51;;;;;;;;;;;22.50;43.80;;;;;;5983187;29;20065;-74
2023/05/12 14:26:07;;;;;;;2.08;1.20;;;22.50;43.90;;;;;;5982833;29;19917;-77
2023/05/12 14:29:18;;;;;;;2.67;1.15;;;22.50;43.70;;;;;;5986770;29;20053;-79
2023/05/12 14:32:22;;;;;;;2.08;1.15;;;22.60;43.60;;;;;;5984677;29;20118;-76
2023/05/12 14:35:34;;;;;;;2.10;1.00;;;22.80;43.60;;;;;;5988711;29;20107;-75
2023/05/12 14:38:41;;;;;;;1.70;0.98;;;22.90;43.50;;;;;;5987694;29;20068;-73
2023/05/12 14:41:49;;;;;;;2.47;1.00;;;23.50;42.80;;;;;;6000067;29;20038;-75
2023/05/12 14:44:57;;;;;;;1.63;0.95;;;24.30;41.30;;;;;;5985327;29;20037;-76
2023/05/12 14:48:05;;;;;;;1.90;1.13;;;24.90;40.30;;;;;;5983397;29;20022;-75
2023/05/12 14:51:14;;;;;;;1.10;1.00;;;25.20;39.20;;;;;;5983504;29;20363;-75
2023/05/12 14:54:21;;;;;;;1.35;1.00;;;25.30;38.90;;;;;;5982954;29;20192;-74
2023/05/12 14:57:27;;;;;;;1.00;0.90;;;25.40;38.60;;;;;;5983083;29;20049;-75
2023/05/12 15:00:35;;;;;;;4.00;1.25;;;25.40;38.50;;;;;;5982318;29;20238;-75
2023/05/12 15:03:41;;;;;;;2.30;1.00;;;25.40;38.70;;;;;;5984169;29;20022;-73
2023/05/12 15:06:46;;;;;;;1.27;0.90;;;25.20;38.50;;;;;;5982034;29;20042;-75
2023/05/12 15:09:55;;;;;;;4.07;0.80;;;24.90;38.60;;;;;;5996312;29;20031;-73
2023/05/12 15:13:02;;;;;;;7.55;5.20;;;24.60;38.90;;;;;;5981781;29;20061;-75
2023/05/12 15:16:13;;;;;;;4.18;1.20;;;24.30;39.60;;;;;;5977783;29;20066;-74
2023/05/12 15:19:21;;;;;;;1.98;1.00;;;23.90;40.20;;;;;;5974132;29;20045;-75
2023/05/12 15:22:30;;;;;;;4.40;1.10;;;23.50;41.20;;;;;;5960332;29;20062;-77
2023/05/12 15:25:41;;;;;;;3.78;1.00;;;23.10;42.20;;;;;;5960672;29;20041;-74
2023/05/12 15:28:49;;;;;;;1.35;0.70;;;22.70;43.30;;;;;;5959523;29;20038;-76
2023/05/12 15:32:01;;;;;;;1.33;1.05;;;22.30;43.80;;;;;;5960232;29;20045;-76
2023/05/12 15:35:15;;;;;;;1.00;0.70;;;22.10;43.90;;;;;;5960479;29;20114;-75
2023/05/12 15:38:22;;;;;;;1.20;0.70;;;21.90;44.10;;;;;;5961056;29;20062;-75
2023/05/12 15:41:31;;;;;;;1.95;0.95;;;21.60;44.70;;;;;;5958934;29;20043;-78
2023/05/12 15:44:40;;;;;;;2.88;0.77;;;21.40;45.30;;;;;;5959852;29;20031;-75
2023/05/12 15:47:45;;;;;;;1.38;0.80;;;21.20;45.70;;;;;;5957942;29;20027;-73
2023/05/12 15:50:54;;;;;;;1.17;0.73;;;21.00;46.80;;;;;;5973493;29;20478;-75
2023/05/12 15:54:05;;;;;;;1.58;0.93;;;20.80;46.80;;;;;;5961617;29;20045;-75
2023/05/12 15:57:15;;;;;;;2.78;0.70;;;20.60;47.20;;;;;;5968062;29;20065;-74
2023/05/12 16:00:22;;;;;;;6.03;0.93;;;20.40;47.40;;;;;;5982397;29;20041;-76
2023/05/12 16:03:30;;;;;;;3.65;1.35;;;20.20;48.20;;;;;;5983305;29;20038;-76
2023/05/12 16:06:35;;;;;;;;;;;20.00;49.10;;;;;;5982554;29;20118;-73
2023/05/12 16:09:41;;;;;;;2.83;1.38;;;19.80;50.00;;;;;;5984661;29;19935;-76
2023/05/12 16:12:48;;;;;;;11.30;3.60;;;19.70;50.30;;;;;;5964745;29;20074;-74
2023/05/12 16:15:54;;;;;;;6.88;1.42;;;19.50;50.80;;;;;;5964916;29;20035;-75
2023/05/12 16:19:00;;;;;;;3.97;1.15;;;19.40;51.20;;;;;;5964600;29;20123;-77
2023/05/12 16:22:13;;;;;;;1.60;0.70;;;19.30;51.60;;;;;;5964668;29;20551;-75
2023/05/12 16:25:21;;;;;;;3.47;1.40;;;19.10;52.10;;;;;;5962608;29;20035;-76
2023/05/12 16:28:25;;;;;;;3.50;1.92;;;18.90;52.50;;;;;;5962826;29;20034;-75